createdAt,value
2018-05-10T00:02:09.923Z,32.03
2018-05-10T00:04:39.621Z,32.19
2018-05-10T00:07:09.260Z,32.06
2018-05-10T00:09:39.949Z,32.21
2018-05-10T00:12:09.595Z,32.18
2018-05-10T00:14:38.605Z,32.03
2018-05-10T00:17:07.454Z,31.99
2018-05-10T00:19:36.465Z,32.21
2018-05-10T00:22:05.871Z,31.93
2018-05-10T00:24:35.526Z,31.95
2018-05-10T00:27:05.880Z,32.01
2018-05-10T00:29:35.578Z,32.18
2018-05-10T00:32:05.458Z,32.11
2018-05-10T00:34:34.194Z,32.05
2018-05-10T00:37:03.157Z,31.84
2018-05-10T00:39:32.217Z,32.07
2018-05-10T00:42:01.252Z,32.21
2018-05-10T00:44:30.593Z,32.33
2018-05-10T00:46:59.450Z,32.43
2018-05-10T00:49:28.540Z,32.46
2018-05-10T00:51:58.061Z,32.66
2018-05-10T00:54:38.152Z,32.52
2018-05-10T00:57:07.587Z,32.71
2018-05-10T00:59:36.802Z,32.76
2018-05-10T01:02:06.150Z,32.57
2018-05-10T01:04:35.597Z,32.99
2018-05-10T01:07:04.841Z,32.98
2018-05-10T01:09:34.449Z,33.44
2018-05-10T01:12:03.784Z,33.43
2018-05-10T01:14:32.916Z,33.81
2018-05-10T01:17:02.800Z,33.58
2018-05-10T01:19:32.403Z,33.55
2018-05-10T01:22:01.927Z,32.76
2018-05-10T01:24:30.857Z,32.21
2018-05-10T01:26:59.784Z,32.66
2018-05-10T01:29:29.359Z,32.71
2018-05-10T01:31:58.217Z,34.46
2018-05-10T01:34:27.024Z,34.72
2018-05-10T01:36:56.187Z,34.17
2018-05-10T01:39:25.309Z,34.63
2018-05-10T01:41:54.959Z,34.77
2018-05-10T01:44:24.195Z,34.39
2018-05-10T01:46:52.898Z,34.78
2018-05-10T01:49:22.410Z,34.67
2018-05-10T01:51:51.722Z,34.45
2018-05-10T01:54:20.875Z,34.07
2018-05-10T01:56:50.412Z,33.79
2018-05-10T01:59:19.554Z,33.64
2018-05-10T02:01:49.403Z,33.83
2018-05-10T02:04:18.458Z,33.69
2018-05-10T02:06:47.738Z,33.78
2018-05-10T02:09:16.688Z,33.81
2018-05-10T02:11:46.539Z,33.73
2018-05-10T02:14:16.106Z,33.73
2018-05-10T02:16:45.791Z,33.88
2018-05-10T02:19:14.981Z,33.65
2018-05-10T02:21:44.393Z,33.42
2018-05-10T02:24:14.029Z,33.46
2018-05-10T02:26:43.636Z,33.64
2018-05-10T02:29:13.751Z,34.07
2018-05-10T02:31:42.806Z,34.09
2018-05-10T02:34:11.968Z,34.19
2018-05-10T02:36:42.227Z,34.14
2018-05-10T02:39:11.484Z,34.16
2018-05-10T02:41:41.425Z,34.50
2018-05-10T02:44:10.835Z,33.93
2018-05-10T02:46:40.327Z,34.28
2018-05-10T02:49:09.496Z,34.47
2018-05-10T02:51:39.568Z,34.78
2018-05-10T02:54:08.306Z,34.69
2018-05-10T02:56:38.227Z,34.50
2018-05-10T02:59:07.785Z,34.81
2018-05-10T03:01:36.976Z,34.52
2018-05-10T03:04:06.645Z,34.63
2018-05-10T03:06:36.020Z,34.48
2018-05-10T03:09:05.999Z,34.39
2018-05-10T03:11:35.618Z,34.14
2018-05-10T03:14:05.409Z,34.03
2018-05-10T03:16:34.315Z,33.98
2018-05-10T03:19:03.813Z,34.05
2018-05-10T03:21:32.754Z,33.92
2018-05-10T03:24:01.522Z,33.63
2018-05-10T03:26:30.437Z,33.69
2018-05-10T03:29:00.012Z,33.66
2018-05-10T03:31:28.822Z,33.37
2018-05-10T03:33:57.708Z,33.93
2018-05-10T03:36:26.715Z,33.48
2018-05-10T03:38:55.715Z,33.21
2018-05-10T03:41:24.959Z,33.38
2018-05-10T03:43:53.987Z,33.21
2018-05-10T03:46:22.869Z,33.41
2018-05-10T03:48:52.639Z,33.65
2018-05-10T03:51:21.641Z,33.11
2018-05-10T03:53:50.836Z,33.17
2018-05-10T03:56:19.863Z,33.08
2018-05-10T03:58:54.236Z,33.01
2018-05-10T04:01:23.875Z,32.62
2018-05-10T04:04:04.256Z,32.72
2018-05-10T04:09:48.681Z,31.53
2018-05-10T04:12:17.598Z,31.84
2018-05-10T04:14:46.406Z,31.99
2018-05-10T04:17:15.107Z,31.85
2018-05-10T04:19:44.638Z,31.53
2018-05-10T04:22:13.742Z,31.69
2018-05-10T04:24:42.919Z,31.96
2018-05-10T04:27:12.249Z,32.01
2018-05-10T04:29:41.098Z,31.59
2018-05-10T04:32:09.887Z,31.65
2018-05-10T04:34:39.230Z,31.29
2018-05-10T04:37:08.320Z,31.71
2018-05-10T04:39:37.019Z,31.71
2018-05-10T04:42:06.400Z,31.54
2018-05-10T04:44:35.577Z,30.76
2018-05-10T04:47:04.043Z,29.79
2018-05-10T04:49:32.636Z,29.83
2018-05-10T04:52:02.847Z,30.12
2018-05-10T04:54:32.505Z,29.86
2018-05-10T04:57:01.196Z,29.95
2018-05-10T04:59:30.302Z,29.95
2018-05-10T05:01:59.536Z,29.80
2018-05-10T05:04:28.596Z,29.84
2018-05-10T05:06:58.406Z,30.19
2018-05-10T05:09:27.289Z,29.92
2018-05-10T05:11:56.843Z,29.33
2018-05-10T05:14:26.256Z,29.81
2018-05-10T05:16:55.154Z,29.22
2018-05-10T05:19:24.183Z,29.25
2018-05-10T05:21:54.014Z,29.54
2018-05-10T05:24:23.538Z,29.27
2018-05-10T05:26:52.956Z,29.65
2018-05-10T05:29:22.137Z,29.60
2018-05-10T05:31:50.911Z,29.62
2018-05-10T05:34:20.348Z,29.20
2018-05-10T05:36:49.209Z,28.79
2018-05-10T05:39:17.975Z,29.39
2018-05-10T05:41:47.475Z,28.33
2018-05-10T05:44:17.343Z,27.90
2018-05-10T05:46:46.803Z,29.09
2018-05-10T05:49:16.413Z,28.65
2018-05-10T05:51:46.069Z,29.50
2018-05-10T05:54:15.442Z,28.67
2018-05-10T05:56:45.124Z,28.86
2018-05-10T05:59:14.073Z,28.55
2018-05-10T06:01:42.605Z,28.31
2018-05-10T06:04:11.159Z,31.39
2018-05-10T06:06:39.967Z,32.72
2018-05-10T06:09:09.853Z,34.53
2018-05-10T06:11:38.616Z,35.51
2018-05-10T06:14:07.376Z,33.82
2018-05-10T06:16:36.524Z,32.70
2018-05-10T06:19:05.107Z,31.47
2018-05-10T06:21:34.505Z,30.87
2018-05-10T06:24:04.354Z,30.57
2018-05-10T06:26:33.570Z,30.36
2018-05-10T06:29:02.870Z,30.07
2018-05-10T06:31:31.996Z,29.24
2018-05-10T06:34:01.185Z,28.09
2018-05-10T06:36:29.989Z,28.60
2018-05-10T06:38:59.509Z,28.72
2018-05-10T06:41:29.155Z,28.43
2018-05-10T06:43:58.412Z,28.22
2018-05-10T06:46:27.677Z,28.07
2018-05-10T06:48:57.671Z,28.17
2018-05-10T06:51:26.919Z,27.85
2018-05-10T06:53:56.606Z,27.89
2018-05-10T06:56:26.187Z,27.64
2018-05-10T06:58:55.410Z,27.29
2018-05-10T07:01:24.402Z,26.90
2018-05-10T07:03:53.317Z,27.05
2018-05-10T07:06:22.515Z,26.79
2018-05-10T07:08:51.552Z,26.18
2018-05-10T07:11:23.143Z,26.18
2018-05-10T07:13:53.771Z,26.77
2018-05-10T07:16:27.525Z,27.11
2018-05-10T07:19:00.814Z,27.11
2018-05-10T07:21:30.735Z,26.79
2018-05-10T07:24:00.419Z,26.87
2018-05-10T07:26:30.320Z,26.75
2018-05-10T07:29:03.105Z,26.81
2018-05-10T07:31:37.430Z,26.46
2018-05-10T07:34:09.145Z,26.76
2018-05-10T07:36:41.544Z,26.92
2018-05-10T07:39:11.207Z,26.37
2018-05-10T07:41:42.535Z,26.54
2018-05-10T07:44:11.249Z,26.33
2018-05-10T07:46:40.884Z,26.36
2018-05-10T07:49:10.224Z,26.39
2018-05-10T07:51:40.213Z,26.26
2018-05-10T07:54:09.806Z,26.44
2018-05-10T07:56:39.247Z,26.81
2018-05-10T07:59:08.391Z,26.59
2018-05-10T08:01:38.869Z,26.52
2018-05-10T08:04:08.089Z,26.94
2018-05-10T08:06:38.042Z,26.47
2018-05-10T08:09:08.088Z,26.52
2018-05-10T08:11:37.837Z,26.43
2018-05-10T08:14:07.060Z,25.95
2018-05-10T08:16:37.044Z,25.85
2018-05-10T08:19:06.673Z,26.07
2018-05-10T08:21:36.395Z,26.16
2018-05-10T08:24:05.674Z,26.63
2018-05-10T08:26:34.710Z,26.71
2018-05-10T08:29:04.440Z,26.16
2018-05-10T08:31:33.876Z,26.15
2018-05-10T08:34:03.959Z,25.96
2018-05-10T08:36:32.978Z,25.86
2018-05-10T08:39:02.555Z,25.83
2018-05-10T08:41:31.766Z,26.03
2018-05-10T08:44:02.182Z,26.09
2018-05-10T08:46:31.778Z,26.24
2018-05-10T08:49:02.124Z,25.99
2018-05-10T08:51:32.174Z,26.06
2018-05-10T08:54:01.887Z,25.93
2018-05-10T08:56:30.839Z,25.88
2018-05-10T08:58:59.580Z,25.76
2018-05-10T09:01:29.469Z,25.79
2018-05-10T09:03:58.741Z,25.83
2018-05-10T09:06:29.603Z,25.70
2018-05-10T09:08:58.759Z,26.81
2018-05-10T09:11:27.579Z,26.03
2018-05-10T09:13:58.846Z,26.08
2018-05-10T09:16:29.471Z,26.36
2018-05-10T09:19:00.332Z,26.75
2018-05-10T09:21:31.100Z,27.00
2018-05-10T09:24:02.203Z,27.46
2018-05-10T09:26:32.334Z,27.81
2018-05-10T09:29:01.843Z,27.87
2018-05-10T09:31:31.974Z,28.00
2018-05-10T09:34:02.513Z,28.03
2018-05-10T09:36:32.276Z,28.05
2018-05-10T09:39:02.774Z,27.70
2018-05-10T09:41:31.850Z,27.73
2018-05-10T09:44:01.619Z,27.68
2018-05-10T09:46:31.173Z,27.95
2018-05-10T09:49:00.674Z,28.28
2018-05-10T09:51:30.063Z,27.99
2018-05-10T09:53:59.847Z,28.06
2018-05-10T09:56:28.940Z,28.10
2018-05-10T09:58:57.524Z,28.37
2018-05-10T10:01:27.579Z,28.15
2018-05-10T10:03:56.365Z,27.49
2018-05-10T10:06:26.146Z,28.08
2018-05-10T10:08:56.125Z,27.70
2018-05-10T10:11:25.248Z,27.95
2018-05-10T10:13:53.739Z,27.93
2018-05-10T10:16:23.304Z,27.82
2018-05-10T10:18:52.737Z,27.27
2018-05-10T10:21:22.097Z,27.44
2018-05-10T10:23:51.052Z,27.29
2018-05-10T10:26:20.494Z,27.18
2018-05-10T10:28:49.363Z,27.32
2018-05-10T10:31:18.334Z,27.21
2018-05-10T10:33:47.694Z,27.18
2018-05-10T10:36:17.088Z,27.10
2018-05-10T10:38:46.760Z,26.87
2018-05-10T10:41:16.538Z,26.41
2018-05-10T10:43:45.657Z,26.46
2018-05-10T10:46:14.382Z,26.77
2018-05-10T10:48:43.869Z,26.35
2018-05-10T10:51:13.489Z,26.37
2018-05-10T10:53:43.257Z,26.67
2018-05-10T10:56:12.333Z,26.35
2018-05-10T10:58:42.496Z,26.47
2018-05-10T11:01:11.395Z,26.50
2018-05-10T11:03:40.466Z,26.66
2018-05-10T11:06:10.234Z,26.42
2018-05-10T11:08:39.789Z,26.69
2018-05-10T11:11:10.969Z,26.35
2018-05-10T11:13:39.752Z,26.04
2018-05-10T11:16:08.971Z,26.29
2018-05-10T11:18:38.409Z,26.35
2018-05-10T11:21:07.495Z,26.04
2018-05-10T11:23:36.643Z,26.16
2018-05-10T11:26:06.290Z,26.23
2018-05-10T11:28:35.411Z,25.95
2018-05-10T11:31:04.762Z,25.86
2018-05-10T11:33:33.856Z,25.86
2018-05-10T11:36:03.271Z,25.90
2018-05-10T11:38:32.861Z,26.14
2018-05-10T11:41:02.265Z,26.22
2018-05-10T11:43:31.533Z,26.30
2018-05-10T11:46:00.223Z,26.60
2018-05-10T11:48:28.978Z,26.55
2018-05-10T11:50:58.139Z,26.66
2018-05-10T11:53:27.332Z,26.76
2018-05-10T11:55:56.069Z,26.71
2018-05-10T11:58:25.378Z,27.00
2018-05-10T12:00:54.546Z,26.94
2018-05-10T12:03:23.047Z,26.82
2018-05-10T12:05:52.024Z,27.03
2018-05-10T12:08:21.513Z,26.94
2018-05-10T12:10:50.640Z,26.82
2018-05-10T12:13:20.114Z,26.98
2018-05-10T12:15:49.505Z,27.01
2018-05-10T12:18:18.249Z,26.88
2018-05-10T12:20:47.407Z,26.85
2018-05-10T12:23:16.231Z,27.07
2018-05-10T12:25:45.602Z,27.10
2018-05-10T12:28:14.678Z,27.12
2018-05-10T12:30:43.779Z,27.28
2018-05-10T12:33:12.806Z,26.93
2018-05-10T12:35:41.489Z,26.94
2018-05-10T12:38:10.303Z,27.10
2018-05-10T12:40:39.928Z,27.22
2018-05-10T12:43:08.722Z,26.87
2018-05-10T12:45:38.324Z,26.87
2018-05-10T12:48:06.691Z,26.79
2018-05-10T12:50:35.732Z,26.53
2018-05-10T12:53:04.336Z,26.30
2018-05-10T12:55:33.117Z,26.29
2018-05-10T12:58:04.346Z,26.46
2018-05-10T13:00:33.033Z,26.48
2018-05-10T13:03:02.496Z,26.58
2018-05-10T13:05:32.084Z,26.76
2018-05-10T13:08:01.348Z,26.96
2018-05-10T13:10:30.677Z,26.93
2018-05-10T13:12:59.783Z,27.04
2018-05-10T13:15:28.953Z,27.18
2018-05-10T13:17:58.937Z,28.69
2018-05-10T13:20:27.501Z,28.28
2018-05-10T13:22:57.443Z,28.09
2018-05-10T13:25:25.933Z,28.11
2018-05-10T13:27:55.331Z,28.71
2018-05-10T13:30:25.526Z,29.30
2018-05-10T13:32:54.555Z,29.10
2018-05-10T13:35:23.338Z,28.96
2018-05-10T13:37:52.422Z,28.84
2018-05-10T13:40:21.537Z,28.99
2018-05-10T13:42:50.880Z,30.42
2018-05-10T13:45:20.627Z,30.11
2018-05-10T13:47:49.487Z,29.97
2018-05-10T13:50:18.923Z,29.95
2018-05-10T13:52:47.893Z,29.93
2018-05-10T13:55:17.064Z,30.20
2018-05-10T13:57:46.501Z,30.25
2018-05-10T14:00:16.067Z,30.15
2018-05-10T14:02:45.891Z,30.09
2018-05-10T14:05:15.272Z,30.07
2018-05-10T14:07:44.469Z,30.08
2018-05-10T14:10:13.331Z,29.97
2018-05-10T14:12:42.294Z,31.21
2018-05-10T14:15:12.429Z,30.80
2018-05-10T14:17:42.534Z,30.70
2018-05-10T14:20:12.006Z,30.65
2018-05-10T14:22:40.671Z,30.74
2018-05-10T14:25:09.675Z,30.75
2018-05-10T14:27:39.121Z,30.78
2018-05-10T14:30:08.479Z,30.65
2018-05-10T14:32:37.785Z,30.60
2018-05-10T14:35:07.542Z,30.68
2018-05-10T14:37:36.666Z,30.72
2018-05-10T14:40:05.923Z,30.78
2018-05-10T14:42:34.934Z,30.80
2018-05-10T14:45:04.359Z,30.89
2018-05-10T14:47:33.078Z,30.87
2018-05-10T14:50:02.425Z,31.03
2018-05-10T14:52:31.299Z,31.05
2018-05-10T14:55:00.443Z,31.11
2018-05-10T14:57:29.399Z,31.13
2018-05-10T14:59:58.598Z,31.25
2018-05-10T15:02:30.677Z,31.34
2018-05-10T15:04:59.846Z,31.41
2018-05-10T15:07:29.467Z,31.36
2018-05-10T15:09:58.587Z,31.44
2018-05-10T15:12:27.779Z,31.52
2018-05-10T15:14:57.199Z,31.48
2018-05-10T15:17:26.554Z,31.45
2018-05-10T15:19:56.117Z,31.59
2018-05-10T15:22:26.103Z,31.64
2018-05-10T15:24:54.679Z,31.62
2018-05-10T15:27:24.192Z,31.63
2018-05-10T15:29:53.473Z,31.48
2018-05-10T15:32:22.908Z,31.61
2018-05-10T15:34:51.712Z,31.74
2018-05-10T15:37:21.270Z,31.56
2018-05-10T15:39:51.156Z,31.70
2018-05-10T15:42:20.184Z,31.77
2018-05-10T15:44:49.753Z,31.94
2018-05-10T15:47:19.115Z,31.71
2018-05-10T15:49:48.700Z,31.80
2018-05-10T15:52:18.448Z,31.60
2018-05-10T15:54:48.332Z,31.67
2018-05-10T15:57:17.311Z,31.78
2018-05-10T15:59:46.565Z,31.78
2018-05-10T16:02:15.543Z,31.79
2018-05-10T16:04:44.354Z,31.58
2018-05-10T16:07:13.047Z,31.46
2018-05-10T16:09:42.445Z,31.61
2018-05-10T16:12:11.449Z,31.63
2018-05-10T16:14:40.909Z,31.61
2018-05-10T16:17:10.773Z,31.58
2018-05-10T16:19:39.438Z,31.55
2018-05-10T16:22:08.076Z,31.55
2018-05-10T16:24:37.376Z,31.48
2018-05-10T16:27:06.297Z,31.62
2018-05-10T16:29:35.099Z,35.71
2018-05-10T16:34:55.650Z,33.62
2018-05-10T16:37:24.911Z,31.94
2018-05-10T16:39:54.154Z,31.34
2018-05-10T16:42:23.321Z,30.46
2018-05-10T16:44:53.663Z,29.91
2018-05-10T16:47:22.872Z,29.60
2018-05-10T16:49:52.554Z,29.21
2018-05-10T16:52:22.170Z,29.19
2018-05-10T16:54:51.893Z,28.73
2018-05-10T16:57:21.175Z,27.82
2018-05-10T16:59:50.079Z,28.11
2018-05-10T17:02:19.285Z,28.50
2018-05-10T17:04:48.483Z,27.78
2018-05-10T17:07:17.272Z,27.23
2018-05-10T17:09:47.998Z,27.43
2018-05-10T17:12:17.645Z,27.35
2018-05-10T17:14:47.300Z,27.27
2018-05-10T17:17:16.925Z,26.55
2018-05-10T17:19:45.530Z,26.77
2018-05-10T17:22:14.702Z,26.45
2018-05-10T17:24:43.440Z,26.65
2018-05-10T17:27:12.167Z,26.58
2018-05-10T17:29:41.704Z,26.39
2018-05-10T17:32:10.826Z,26.63
2018-05-10T17:34:39.669Z,26.53
2018-05-10T17:37:09.212Z,26.33
2018-05-10T17:39:38.058Z,26.70
2018-05-10T17:42:07.219Z,26.29
2018-05-10T17:44:36.892Z,26.19
2018-05-10T17:47:06.120Z,26.38
2018-05-10T17:49:35.139Z,26.32
2018-05-10T17:52:04.543Z,26.25
2018-05-10T17:54:33.796Z,26.72
2018-05-10T17:57:03.395Z,26.63
2018-05-10T17:59:33.061Z,26.54
2018-05-10T18:02:02.102Z,27.10
2018-05-10T18:04:31.072Z,26.59
2018-05-10T18:07:00.432Z,27.12
2018-05-10T18:09:29.542Z,27.38
2018-05-10T18:11:59.750Z,27.07
2018-05-10T18:14:28.671Z,27.35
2018-05-10T18:16:57.657Z,27.55
2018-05-10T18:19:26.926Z,27.65
2018-05-10T18:21:55.807Z,27.20
2018-05-10T18:24:24.624Z,27.46
2018-05-10T18:26:53.731Z,28.06
2018-05-10T18:29:22.974Z,27.65
2018-05-10T18:31:52.154Z,27.62
2018-05-10T18:34:21.051Z,28.14
2018-05-10T18:36:50.318Z,27.96
2018-05-10T18:39:19.686Z,27.59
2018-05-10T18:41:48.784Z,28.35
2018-05-10T18:44:18.642Z,28.37
2018-05-10T18:46:47.441Z,27.73
2018-05-10T18:49:16.521Z,28.45
2018-05-10T18:51:46.221Z,28.70
2018-05-10T18:54:15.546Z,28.13
2018-05-10T18:59:39.631Z,28.85
2018-05-10T19:02:08.953Z,28.47
2018-05-10T19:04:37.688Z,27.90
2018-05-10T19:07:06.948Z,28.73
2018-05-10T19:09:36.307Z,28.42
2018-05-10T19:12:06.326Z,28.40
2018-05-10T19:14:35.116Z,29.15
2018-05-10T19:17:04.290Z,28.86
2018-05-10T19:19:33.236Z,28.20
2018-05-10T19:22:02.973Z,28.85
2018-05-10T19:24:32.439Z,28.74
2018-05-10T19:27:01.544Z,28.72
2018-05-10T19:29:30.224Z,28.92
2018-05-10T19:31:59.325Z,28.84
2018-05-10T19:34:28.561Z,29.27
2018-05-10T19:36:57.597Z,28.62
2018-05-10T19:39:26.328Z,28.84
2018-05-10T19:41:55.920Z,29.35
2018-05-10T19:44:24.685Z,28.56
2018-05-10T19:46:53.476Z,28.95
2018-05-10T19:49:22.292Z,29.21
2018-05-10T19:51:51.044Z,28.58
2018-05-10T19:54:19.952Z,29.09
2018-05-10T19:56:48.938Z,29.49
2018-05-10T19:59:17.731Z,28.92
2018-05-10T20:01:46.731Z,29.15
2018-05-10T20:04:16.352Z,29.77
2018-05-10T20:06:45.565Z,29.21
2018-05-10T20:09:14.229Z,29.30
2018-05-10T20:11:43.526Z,29.89
2018-05-10T20:14:13.467Z,29.12
2018-05-10T20:16:42.679Z,29.11
2018-05-10T20:19:12.222Z,29.63
2018-05-10T20:21:41.951Z,29.78
2018-05-10T20:24:12.164Z,30.17
2018-05-10T20:26:41.202Z,30.09
2018-05-10T20:29:10.529Z,29.63
2018-05-10T20:31:39.668Z,30.17
2018-05-10T20:34:08.580Z,29.79
2018-05-10T20:36:37.310Z,29.69
2018-05-10T20:39:07.341Z,30.29
2018-05-10T20:41:36.492Z,30.45
2018-05-10T20:44:05.276Z,30.89
2018-05-10T20:46:35.107Z,30.95
2018-05-10T20:49:04.693Z,31.04
2018-05-10T20:51:34.037Z,31.97
2018-05-10T20:54:03.294Z,31.02
2018-05-10T20:56:32.090Z,31.32
2018-05-10T20:59:01.601Z,31.86
2018-05-10T21:01:30.861Z,30.48
2018-05-10T21:03:59.463Z,30.67
2018-05-10T21:06:28.443Z,31.07
2018-05-10T21:08:57.253Z,30.80
2018-05-10T21:11:26.357Z,31.82
2018-05-10T21:13:55.409Z,31.17
2018-05-10T21:16:24.204Z,31.59
2018-05-10T21:18:52.927Z,32.37
2018-05-10T21:21:22.607Z,31.14
2018-05-10T21:23:51.187Z,31.50
2018-05-10T21:26:20.641Z,32.78
2018-05-10T21:28:49.799Z,31.92
2018-05-10T21:31:18.922Z,31.39
2018-05-10T21:33:47.609Z,32.00
2018-05-10T21:36:16.489Z,31.90
2018-05-10T21:38:45.434Z,32.33
2018-05-10T21:41:14.147Z,32.51
2018-05-10T21:43:43.081Z,31.44
2018-05-10T21:46:12.320Z,32.43
2018-05-10T21:48:41.292Z,32.38
2018-05-10T21:51:10.494Z,32.68
2018-05-10T21:53:39.116Z,32.85
2018-05-10T21:56:07.779Z,31.89
2018-05-10T21:58:36.646Z,32.54
2018-05-10T22:01:06.618Z,32.49
2018-05-10T22:03:35.558Z,31.16
2018-05-10T22:06:03.959Z,31.70
2018-05-10T22:08:32.698Z,32.45
2018-05-10T22:11:01.717Z,32.21
2018-05-10T22:13:30.876Z,32.44
2018-05-10T22:15:59.616Z,31.79
2018-05-10T22:18:28.515Z,32.17
2018-05-10T22:20:57.013Z,32.44
2018-05-10T22:23:25.899Z,32.02
2018-05-10T22:25:55.473Z,31.49
2018-05-10T22:28:24.751Z,32.10
2018-05-10T22:30:53.446Z,32.35
2018-05-10T22:33:22.430Z,32.63
2018-05-10T22:35:51.206Z,32.72
2018-05-10T22:38:19.947Z,32.00
2018-05-10T22:40:48.687Z,32.03
2018-05-10T22:43:17.656Z,32.70
2018-05-10T22:45:46.514Z,31.85
2018-05-10T22:48:15.712Z,32.05
2018-05-10T22:50:44.535Z,32.33
2018-05-10T22:53:13.773Z,32.36
2018-05-10T22:55:43.717Z,32.57
2018-05-10T22:58:12.549Z,32.57
2018-05-10T23:00:41.272Z,31.66
2018-05-10T23:03:11.789Z,31.92
2018-05-10T23:05:41.177Z,31.98
2018-05-10T23:08:10.116Z,31.33
2018-05-10T23:10:38.869Z,31.42
2018-05-10T23:13:07.959Z,31.75
2018-05-10T23:15:37.126Z,31.82
2018-05-10T23:18:06.344Z,31.72
2018-05-10T23:20:35.447Z,31.66
2018-05-10T23:23:19.597Z,30.77
2018-05-10T23:25:48.795Z,31.06
2018-05-10T23:28:18.419Z,31.07
2018-05-10T23:30:47.611Z,31.15
2018-05-10T23:33:16.329Z,30.93
2018-05-10T23:35:45.360Z,30.63
2018-05-10T23:38:14.634Z,30.48
2018-05-10T23:40:43.834Z,30.55
2018-05-10T23:43:12.577Z,30.76
2018-05-10T23:45:41.692Z,30.44
2018-05-10T23:48:10.726Z,30.17
2018-05-10T23:50:39.489Z,29.93
2018-05-10T23:53:08.766Z,30.11
2018-05-10T23:55:37.533Z,30.10
2018-05-10T23:58:06.382Z,30.20
